Time;durP1;ratioP1;P1;durP2;ratioP2;P2;SDS_P1;SDS_P2;PMS_P1;PMS_P2;Temp;Humidity;BMP_temperature;BMP_pressure;BME280_temperature;BME280_humidity;BME280_pressure;Samples;Min_cycle;Max_cycle;Signal;HPM_P1;HPM_P2
2023/09/30 00:02:19;;;;;;;322.73;221.65;;;27.10;99.90;;;;;;5095294;28;20052;-65
2023/09/30 00:04:46;;;;;;;340.40;229.88;;;27.10;99.90;;;;;;5095703;28;20020;-66
2023/09/30 00:07:13;;;;;;;346.92;234.07;;;27.10;99.90;;;;;;5095977;28;20534;-67
2023/09/30 00:09:40;;;;;;;356.98;231.07;;;27.20;99.90;;;;;;5095492;28;20076;-66
2023/09/30 00:12:06;;;;;;;334.70;225.82;;;27.30;99.90;;;;;;5095665;28;20032;-67
2023/09/30 00:14:33;;;;;;;310.45;207.20;;;27.40;99.90;;;;;;5095425;28;20028;-66
2023/09/30 00:17:00;;;;;;;324.95;215.00;;;27.40;99.90;;;;;;5095373;28;20028;-67
2023/09/30 00:19:26;;;;;;;320.33;207.52;;;27.40;99.90;;;;;;5095660;28;20024;-67
2023/09/30 00:21:53;;;;;;;298.75;192.80;;;27.50;99.90;;;;;;5095301;28;20042;-67
2023/09/30 00:24:20;;;;;;;271.92;183.45;;;27.50;99.90;;;;;;5095279;28;20048;-66
2023/09/30 00:26:47;;;;;;;266.77;176.82;;;27.40;99.90;;;;;;5094991;28;20119;-66
2023/09/30 00:29:13;;;;;;;253.63;173.63;;;27.50;99.90;;;;;;5099678;28;20028;-67
2023/09/30 00:31:40;;;;;;;257.85;170.18;;;27.50;99.90;;;;;;5106243;28;20137;-67
2023/09/30 00:34:08;;;;;;;240.18;159.07;;;27.40;99.90;;;;;;5115502;28;20031;-67
2023/09/30 00:36:34;;;;;;;234.15;152.07;;;27.50;99.90;;;;;;5115316;28;20031;-67
2023/09/30 00:39:01;;;;;;;236.20;154.57;;;27.60;99.90;;;;;;5115299;28;20055;-67
2023/09/30 00:41:28;;;;;;;218.30;144.00;;;27.70;99.90;;;;;;5115144;28;20023;-67
2023/09/30 00:43:54;;;;;;;226.75;148.45;;;27.70;99.90;;;;;;5115314;28;20054;-67
2023/09/30 00:46:29;;;;;;;217.50;143.02;;;27.80;99.90;;;;;;5115063;28;20016;-67
2023/09/30 00:48:58;;;;;;;222.05;143.80;;;27.90;99.90;;;;;;5115233;28;20023;-67
2023/09/30 00:51:25;;;;;;;221.65;148.15;;;27.90;99.90;;;;;;5114975;28;20044;-66
2023/09/30 00:53:53;;;;;;;227.88;149.07;;;28.10;99.90;;;;;;5115070;28;20030;-66
2023/09/30 00:56:22;;;;;;;221.23;149.30;;;28.10;99.90;;;;;;5115175;28;20038;-67
2023/09/30 00:58:51;;;;;;;226.07;147.95;;;28.10;99.90;;;;;;5115118;28;20103;-67
2023/09/30 01:01:18;;;;;;;225.68;142.40;;;28.20;99.90;;;;;;5114383;28;20047;-67
2023/09/30 01:03:46;;;;;;;218.80;139.70;;;28.20;99.90;;;;;;5114743;28;20051;-66
2023/09/30 01:06:13;;;;;;;201.10;133.50;;;28.40;99.90;;;;;;5114816;28;20028;-67
2023/09/30 01:08:40;;;;;;;199.85;129.35;;;28.40;99.90;;;;;;5114754;28;20035;-66
2023/09/30 01:11:07;;;;;;;202.38;127.85;;;28.50;99.90;;;;;;5114646;28;20020;-67
2023/09/30 01:13:36;;;;;;;185.57;124.72;;;28.60;99.90;;;;;;5114723;28;20042;-67
2023/09/30 01:16:05;;;;;;;196.10;125.78;;;28.70;99.90;;;;;;5114685;28;20030;-67
2023/09/30 01:18:32;;;;;;;178.00;116.93;;;28.80;99.90;;;;;;5103957;28;20500;-66
2023/09/30 01:21:03;;;;;;;178.43;115.35;;;28.80;99.90;;;;;;5094520;28;20044;-68
2023/09/30 01:23:31;;;;;;;191.80;122.75;;;28.80;99.90;;;;;;5100717;28;20393;-70
2023/09/30 01:26:00;;;;;;;204.52;128.45;;;28.90;99.90;;;;;;5094782;28;20024;-69
2023/09/30 01:28:27;;;;;;;202.85;132.90;;;29.00;99.90;;;;;;5094837;28;20037;-67
2023/09/30 01:30:53;;;;;;;205.75;130.90;;;29.10;99.90;;;;;;5094617;28;20016;-67
2023/09/30 01:33:20;;;;;;;201.50;124.82;;;29.10;99.90;;;;;;5094737;28;20051;-68
2023/09/30 01:35:47;;;;;;;178.90;119.32;;;29.30;99.90;;;;;;5095074;28;20445;-67
2023/09/30 01:38:13;;;;;;;170.80;112.22;;;29.20;99.90;;;;;;5094704;28;20035;-68
2023/09/30 01:40:40;;;;;;;182.95;113.50;;;29.30;99.90;;;;;;5095102;28;20023;-69
2023/09/30 01:43:06;;;;;;;190.50;121.80;;;29.40;99.90;;;;;;5094251;28;20095;-68
2023/09/30 01:45:33;;;;;;;177.13;119.18;;;29.40;99.90;;;;;;5094092;28;20020;-68
2023/09/30 01:48:00;;;;;;;168.48;103.70;;;29.40;99.90;;;;;;5094887;28;20154;-70
2023/09/30 01:50:26;;;;;;;155.40;102.25;;;29.60;99.90;;;;;;5094527;28;20020;-69
2023/09/30 01:52:53;;;;;;;167.10;107.53;;;29.50;99.90;;;;;;5094124;28;20016;-68
2023/09/30 01:55:19;;;;;;;158.70;107.53;;;29.70;99.90;;;;;;5094252;28;20375;-69
2023/09/30 01:57:46;;;;;;;166.45;113.10;;;29.80;99.90;;;;;;5093794;28;20052;-69
2023/09/30 02:00:12;;;;;;;212.02;133.68;;;29.80;99.90;;;;;;5093393;28;20039;-67
2023/09/30 02:02:39;;;;;;;246.70;162.77;;;29.80;99.90;;;;;;5093536;28;20032;-69
2023/09/30 02:05:08;;;;;;;380.52;262.48;;;29.90;99.90;;;;;;5093330;28;20536;-69
2023/09/30 02:07:35;;;;;;;149.93;95.82;;;29.90;99.90;;;;;;5093064;28;20368;-71
2023/09/30 02:10:02;;;;;;;205.80;134.30;;;30.00;99.90;;;;;;5093364;28;20028;-69
2023/09/30 02:12:29;;;;;;;162.27;103.57;;;30.10;99.90;;;;;;5092052;28;20059;-71
2023/09/30 02:14:59;;;;;;;172.70;109.70;;;30.10;99.90;;;;;;5092151;28;20538;-67
2023/09/30 02:17:26;;;;;;;165.70;100.30;;;30.20;99.90;;;;;;5093150;28;20398;-67
2023/09/30 02:19:54;;;;;;;176.00;103.00;;;30.20;99.90;;;;;;5105233;28;20471;-68
2023/09/30 02:22:21;;;;;;;169.15;98.25;;;30.20;99.90;;;;;;5094015;28;20034;-68
2023/09/30 02:24:48;;;;;;;166.02;101.63;;;30.40;99.90;;;;;;5093684;28;20021;-71
2023/09/30 02:27:15;;;;;;;164.05;96.05;;;30.40;99.90;;;;;;5093358;28;20504;-70
2023/09/30 02:29:41;;;;;;;171.82;97.43;;;30.50;99.90;;;;;;5093364;28;20103;-69
2023/09/30 02:32:09;;;;;;;167.38;99.93;;;30.50;99.90;;;;;;5093400;28;20031;-71
2023/09/30 02:34:35;;;;;;;207.05;123.53;;;30.50;99.90;;;;;;5093271;28;20021;-71
2023/09/30 02:37:02;;;;;;;139.80;79.47;;;30.60;99.90;;;;;;5093246;28;20047;-70
2023/09/30 02:39:28;;;;;;;241.60;145.23;;;30.60;99.90;;;;;;5087058;28;20036;-71
2023/09/30 02:41:55;;;;;;;187.88;114.90;;;30.60;99.90;;;;;;5073024;28;20021;-68
2023/09/30 02:44:21;;;;;;;139.13;81.20;;;30.60;99.90;;;;;;5072991;28;20021;-70
2023/09/30 02:46:48;;;;;;;153.90;90.50;;;30.70;99.90;;;;;;5072815;28;20027;-70
2023/09/30 02:49:14;;;;;;;147.43;88.95;;;30.80;99.90;;;;;;5073030;28;20031;-70
2023/09/30 02:51:41;;;;;;;166.30;96.60;;;30.90;99.90;;;;;;5072945;28;20490;-70
2023/09/30 02:54:07;;;;;;;170.60;102.18;;;30.90;99.90;;;;;;5072764;28;20074;-70
2023/09/30 02:56:34;;;;;;;199.18;113.75;;;31.00;99.90;;;;;;5076479;28;20025;-69
2023/09/30 02:59:01;;;;;;;216.10;121.15;;;31.10;99.90;;;;;;5076856;28;20028;-69
2023/09/30 03:01:28;;;;;;;229.23;126.60;;;31.10;99.90;;;;;;5076226;28;20502;-69
2023/09/30 03:03:55;;;;;;;235.88;129.93;;;31.10;99.90;;;;;;5076698;28;20032;-69
2023/09/30 03:06:21;;;;;;;263.85;145.32;;;31.20;99.90;;;;;;5075865;28;20514;-66
2023/09/30 03:08:48;;;;;;;331.17;194.50;;;31.30;99.90;;;;;;5074475;28;20111;-68
2023/09/30 03:11:14;;;;;;;326.45;193.10;;;31.20;99.90;;;;;;5075804;28;20471;-69
2023/09/30 03:13:42;;;;;;;336.13;199.52;;;31.20;99.90;;;;;;5076249;28;20449;-69
2023/09/30 03:16:09;;;;;;;342.52;199.65;;;31.30;99.90;;;;;;5076301;28;20372;-69
2023/09/30 03:18:35;;;;;;;347.17;198.63;;;31.40;99.90;;;;;;5076226;28;20025;-71
2023/09/30 03:21:08;;;;;;;328.27;189.30;;;31.40;99.90;;;;;;5077935;28;20383;-69
2023/09/30 03:23:35;;;;;;;356.88;203.20;;;31.50;99.90;;;;;;5097142;28;20107;-68
2023/09/30 03:26:02;;;;;;;392.02;218.93;;;31.60;99.90;;;;;;5095270;28;20032;-65
2023/09/30 03:28:29;;;;;;;367.90;204.93;;;31.60;99.90;;;;;;5085748;28;20028;-66
2023/09/30 03:30:56;;;;;;;373.10;207.10;;;31.60;99.90;;;;;;5083690;28;20032;-67
2023/09/30 03:33:23;;;;;;;375.15;218.13;;;31.60;99.90;;;;;;5084612;28;20047;-67
2023/09/30 03:35:49;;;;;;;404.33;229.68;;;31.60;99.90;;;;;;5085482;28;20024;-67
2023/09/30 03:38:18;;;;;;;400.30;228.63;;;31.60;99.90;;;;;;5083725;28;20547;-67
2023/09/30 03:40:47;;;;;;;303.80;172.85;;;31.60;99.90;;;;;;5084472;28;20035;-65
2023/09/30 03:43:15;;;;;;;321.35;179.93;;;31.80;99.90;;;;;;5085524;28;20101;-66
2023/09/30 03:45:41;;;;;;;310.27;183.38;;;31.80;99.90;;;;;;5084609;28;20051;-67
2023/09/30 03:48:10;;;;;;;316.75;183.18;;;31.90;99.90;;;;;;5083531;28;20020;-67
2023/09/30 03:50:37;;;;;;;301.85;175.07;;;32.00;99.90;;;;;;5083845;28;20020;-66
2023/09/30 03:53:07;;;;;;;312.85;184.85;;;32.00;99.90;;;;;;5084155;28;20024;-66
2023/09/30 03:55:34;;;;;;;289.80;165.18;;;32.10;99.90;;;;;;5085347;28;20110;-67
2023/09/30 03:58:02;;;;;;;259.55;154.38;;;32.20;99.90;;;;;;5084039;28;20352;-65
2023/09/30 04:00:29;;;;;;;263.00;151.93;;;32.20;99.90;;;;;;5082585;28;20482;-66
2023/09/30 04:02:58;;;;;;;270.33;157.93;;;32.30;99.90;;;;;;5083576;28;20029;-65
2023/09/30 04:05:28;;;;;;;267.60;157.00;;;32.30;99.90;;;;;;5085833;28;20074;-66
2023/09/30 04:07:56;;;;;;;232.82;139.90;;;32.30;99.90;;;;;;5082759;28;20463;-64
2023/09/30 04:10:22;;;;;;;221.02;132.73;;;32.40;99.90;;;;;;5084010;28;20021;-66
2023/09/30 04:12:49;;;;;;;187.57;117.28;;;32.40;99.90;;;;;;5093576;28;20028;-64
2023/09/30 04:15:16;;;;;;;190.90;115.35;;;32.50;99.90;;;;;;5083566;28;20111;-66
2023/09/30 04:17:43;;;;;;;160.82;102.93;;;32.50;99.90;;;;;;5084819;28;20059;-66
2023/09/30 04:20:11;;;;;;;157.75;101.10;;;32.60;99.90;;;;;;5083405;28;20466;-65
2023/09/30 04:22:38;;;;;;;165.88;105.68;;;32.60;99.90;;;;;;5083330;28;20024;-66
2023/09/30 04:25:08;;;;;;;159.65;106.72;;;32.80;99.90;;;;;;5084829;28;20473;-67
2023/09/30 04:27:35;;;;;;;161.30;102.72;;;32.80;99.90;;;;;;5093578;28;20481;-66
2023/09/30 04:30:08;;;;;;;151.23;102.13;;;32.90;99.90;;;;;;5085633;28;20033;-67
2023/09/30 04:32:36;;;;;;;156.82;102.15;;;32.90;99.90;;;;;;5083413;28;20023;-66
2023/09/30 04:35:04;;;;;;;154.52;103.28;;;32.90;99.90;;;;;;5081297;28;20039;-68
2023/09/30 04:37:31;;;;;;;151.38;101.18;;;32.90;99.90;;;;;;5078676;28;20086;-68
2023/09/30 04:39:58;;;;;;;160.50;106.93;;;33.00;99.90;;;;;;5078490;28;20425;-66
2023/09/30 04:42:26;;;;;;;150.95;99.47;;;33.00;99.90;;;;;;5081371;28;20021;-71
2023/09/30 04:44:55;;;;;;;150.43;100.60;;;33.20;99.90;;;;;;5088099;28;20428;-66
2023/09/30 04:47:22;;;;;;;144.27;97.55;;;33.20;99.90;;;;;;5093778;28;20025;-66
2023/09/30 04:49:48;;;;;;;142.93;101.32;;;33.20;99.90;;;;;;5087249;28;20012;-66
2023/09/30 04:52:15;;;;;;;144.93;98.40;;;33.30;99.90;;;;;;5092628;28;20023;-65
2023/09/30 04:54:41;;;;;;;137.55;96.72;;;33.30;99.90;;;;;;5092789;28;20026;-66
2023/09/30 04:57:08;;;;;;;147.65;105.00;;;33.30;99.90;;;;;;5092491;28;20079;-66
2023/09/30 04:59:34;;;;;;;145.57;100.60;;;33.30;99.90;;;;;;5083386;28;20039;-64
2023/09/30 05:02:01;;;;;;;139.57;94.28;;;33.30;99.90;;;;;;5083363;28;20113;-65
2023/09/30 05:04:29;;;;;;;150.35;103.05;;;33.40;99.90;;;;;;5081838;28;20047;-67
2023/09/30 05:06:56;;;;;;;138.55;95.18;;;33.50;99.90;;;;;;5083030;28;20012;-65
2023/09/30 05:09:22;;;;;;;129.18;94.18;;;33.60;99.90;;;;;;5083599;28;20020;-65
2023/09/30 05:11:50;;;;;;;128.38;91.90;;;33.70;99.90;;;;;;5081449;28;20032;-65
2023/09/30 05:14:16;;;;;;;140.25;94.43;;;33.70;99.90;;;;;;5084927;28;20023;-66
2023/09/30 05:16:43;;;;;;;137.00;94.40;;;33.80;99.90;;;;;;5083017;28;20036;-66
2023/09/30 05:19:10;;;;;;;134.63;93.97;;;33.80;99.90;;;;;;5082398;28;20497;-66
2023/09/30 05:21:36;;;;;;;136.20;95.13;;;33.90;99.90;;;;;;5081370;28;20024;-66
2023/09/30 05:24:03;;;;;;;137.60;98.47;;;33.90;99.90;;;;;;5089136;28;20062;-65
2023/09/30 05:26:30;;;;;;;128.98;91.28;;;34.00;99.90;;;;;;5083439;28;20024;-65
2023/09/30 05:28:57;;;;;;;125.82;89.70;;;34.10;99.90;;;;;;5083615;28;20439;-67
2023/09/30 05:31:23;;;;;;;133.05;95.00;;;34.10;99.90;;;;;;5082102;28;20086;-66
2023/09/30 05:33:50;;;;;;;127.35;92.43;;;34.20;99.90;;;;;;5082088;28;20543;-64
2023/09/30 05:36:16;;;;;;;127.78;91.85;;;34.10;99.90;;;;;;5077992;28;20033;-66
2023/09/30 05:38:43;;;;;;;127.30;95.60;;;34.00;99.90;;;;;;5073516;28;20577;-68
2023/09/30 05:41:11;;;;;;;133.88;97.43;;;34.00;99.90;;;;;;5073622;28;20028;-68
2023/09/30 05:43:37;;;;;;;135.80;93.93;;;34.00;99.90;;;;;;5078934;28;20024;-68
2023/09/30 05:46:06;;;;;;;122.10;94.65;;;33.90;99.90;;;;;;5092523;28;20114;-66
2023/09/30 05:48:32;;;;;;;135.85;98.85;;;33.90;99.90;;;;;;5083854;28;20093;-66
2023/09/30 05:50:59;;;;;;;128.63;98.93;;;33.90;99.90;;;;;;5082061;28;20505;-65
2023/09/30 05:53:27;;;;;;;129.82;96.13;;;34.00;99.90;;;;;;5083473;28;20390;-66
2023/09/30 05:55:54;;;;;;;131.82;99.07;;;34.20;99.90;;;;;;5084109;28;20077;-67
2023/09/30 05:58:20;;;;;;;132.02;97.95;;;34.20;99.90;;;;;;5082110;28;20020;-67
2023/09/30 06:00:47;;;;;;;138.02;98.55;;;34.20;99.90;;;;;;5083231;28;20048;-67
2023/09/30 06:03:13;;;;;;;129.77;96.15;;;34.30;99.90;;;;;;5083743;28;20016;-68
2023/09/30 06:05:42;;;;;;;144.68;102.82;;;34.40;99.90;;;;;;5081764;28;20028;-67
2023/09/30 06:08:13;;;;;;;132.63;101.13;;;34.50;99.90;;;;;;5083218;28;20016;-67
2023/09/30 06:10:43;;;;;;;125.72;95.95;;;34.60;99.90;;;;;;5083959;28;20458;-65
2023/09/30 06:13:11;;;;;;;135.30;103.13;;;34.70;99.90;;;;;;5087507;28;20123;-66
2023/09/30 06:15:40;;;;;;;135.32;101.95;;;34.80;99.90;;;;;;5086615;28;20046;-68
2023/09/30 06:18:07;;;;;;;134.40;101.22;;;34.80;99.90;;;;;;5082650;28;20466;-68
2023/09/30 06:20:34;;;;;;;128.43;96.78;;;34.80;99.90;;;;;;5074004;28;20076;-67
2023/09/30 06:23:01;;;;;;;130.48;96.55;;;34.90;99.90;;;;;;5073190;28;20031;-69
2023/09/30 06:25:27;;;;;;;132.52;99.05;;;35.00;99.90;;;;;;5072424;28;20141;-68
2023/09/30 06:27:54;;;;;;;132.18;95.40;;;35.10;99.90;;;;;;5072945;28;20028;-68
2023/09/30 06:30:21;;;;;;;128.32;93.72;;;35.10;99.90;;;;;;5074747;28;20057;-69
2023/09/30 06:32:48;;;;;;;117.85;91.13;;;35.20;99.90;;;;;;5077156;28;20391;-67
2023/09/30 06:35:15;;;;;;;121.82;89.60;;;35.10;99.90;;;;;;5077047;28;20452;-69
2023/09/30 06:37:45;;;;;;;135.25;100.22;;;35.10;99.90;;;;;;5076989;28;20391;-67
2023/09/30 06:40:12;;;;;;;133.13;98.88;;;35.20;99.90;;;;;;5076756;28;20056;-67
2023/09/30 06:42:40;;;;;;;121.57;91.70;;;35.10;99.90;;;;;;5076785;28;20024;-67
2023/09/30 06:45:08;;;;;;;127.03;93.97;;;35.10;99.90;;;;;;5076959;28;20433;-68
2023/09/30 06:47:36;;;;;;;127.93;93.90;;;35.10;99.90;;;;;;5076796;28;20016;-68
2023/09/30 06:50:07;;;;;;;132.13;94.13;;;35.10;99.90;;;;;;5076853;28;20027;-65
2023/09/30 06:52:35;;;;;;;134.98;96.32;;;35.20;99.90;;;;;;5076701;28;20027;-67
2023/09/30 06:55:05;;;;;;;128.48;95.68;;;35.30;99.90;;;;;;5076538;28;20402;-68
2023/09/30 06:57:33;;;;;;;119.35;88.75;;;35.30;99.90;;;;;;5076751;28;20023;-67
2023/09/30 07:00:00;;;;;;;124.95;91.70;;;35.30;99.90;;;;;;5076621;28;20395;-64
2023/09/30 07:02:27;;;;;;;153.63;109.13;;;35.40;99.90;;;;;;5076126;28;20048;-66
2023/09/30 07:04:53;;;;;;;144.02;106.45;;;35.40;99.90;;;;;;5076745;28;20116;-66
2023/09/30 07:07:20;;;;;;;179.55;125.38;;;35.30;99.90;;;;;;5076721;28;20021;-66
2023/09/30 07:09:47;;;;;;;188.10;127.35;;;35.30;99.90;;;;;;5076729;28;20036;-68
2023/09/30 07:12:13;;;;;;;185.70;138.00;;;35.10;99.90;;;;;;5076541;28;20035;-67
2023/09/30 07:14:40;;;;;;;189.00;126.53;;;35.10;99.90;;;;;;5076705;28;20032;-65
2023/09/30 07:17:07;;;;;;;150.63;110.63;;;35.10;99.90;;;;;;5096289;28;20020;-68
2023/09/30 07:19:34;;;;;;;165.43;112.35;;;35.10;99.90;;;;;;5093528;28;20032;-66
2023/09/30 07:22:02;;;;;;;147.68;102.13;;;35.10;99.90;;;;;;5082156;28;20029;-65
2023/09/30 07:24:28;;;;;;;143.40;96.82;;;35.00;99.90;;;;;;5095131;28;20110;-66
2023/09/30 07:26:55;;;;;;;139.00;94.60;;;35.00;99.90;;;;;;5095702;28;20028;-71
2023/09/30 07:29:23;;;;;;;128.38;92.82;;;34.90;99.90;;;;;;5096021;28;20023;-68
2023/09/30 07:31:50;;;;;;;135.60;92.97;;;34.90;99.90;;;;;;5094561;28;20036;-66
2023/09/30 07:34:17;;;;;;;130.65;90.13;;;34.90;99.90;;;;;;5094838;28;20088;-64
2023/09/30 07:36:43;;;;;;;138.75;93.88;;;34.90;99.90;;;;;;5092429;28;20036;-63
2023/09/30 07:39:10;;;;;;;151.93;100.30;;;34.80;99.90;;;;;;5088998;28;20489;-62
2023/09/30 07:41:36;;;;;;;152.13;99.03;;;34.90;99.90;;;;;;5087429;28;20035;-64
2023/09/30 07:44:04;;;;;;;161.50;109.63;;;34.90;99.90;;;;;;5088142;28;20028;-66
2023/09/30 07:46:31;;;;;;;145.75;102.70;;;35.00;99.90;;;;;;5086355;28;20544;-63
2023/09/30 07:48:59;;;;;;;153.13;107.93;;;35.00;99.90;;;;;;5095525;28;20051;-63
2023/09/30 07:51:25;;;;;;;320.20;227.68;;;34.90;99.90;;;;;;5109073;28;20024;-64
2023/09/30 07:53:52;;;;;;;192.30;143.48;;;34.80;99.90;;;;;;5095820;28;20032;-63
2023/09/30 07:56:18;;;;;;;161.85;115.03;;;34.90;99.90;;;;;;5095830;28;20031;-64
2023/09/30 07:58:45;;;;;;;155.52;114.80;;;34.90;99.90;;;;;;5095978;28;20039;-63
2023/09/30 08:01:11;;;;;;;174.52;122.95;;;34.90;99.90;;;;;;5095390;28;20048;-62
2023/09/30 08:03:38;;;;;;;161.13;114.65;;;34.90;99.90;;;;;;5095843;28;20032;-63
2023/09/30 08:06:07;;;;;;;158.30;109.32;;;34.90;99.90;;;;;;5095121;28;20040;-63
2023/09/30 08:08:34;;;;;;;156.73;110.50;;;34.90;99.90;;;;;;5095229;28;20063;-63
2023/09/30 08:11:00;;;;;;;151.30;109.93;;;35.00;99.90;;;;;;5095517;28;20538;-64
2023/09/30 08:13:29;;;;;;;160.00;112.28;;;34.90;99.90;;;;;;5095523;28;20028;-64
2023/09/30 08:15:55;;;;;;;169.27;114.78;;;34.90;99.90;;;;;;5092913;28;20025;-66
2023/09/30 08:18:22;;;;;;;179.63;128.02;;;34.90;99.90;;;;;;5083804;28;20451;-67
2023/09/30 08:20:49;;;;;;;249.88;176.55;;;34.90;99.90;;;;;;5092731;28;20028;-71
2023/09/30 08:23:15;;;;;;;268.48;191.85;;;34.90;99.90;;;;;;5095179;28;20051;-68
2023/09/30 08:25:42;;;;;;;212.70;154.10;;;35.00;99.90;;;;;;5095308;28;20103;-72
2023/09/30 08:28:09;;;;;;;199.18;139.05;;;35.00;99.90;;;;;;5095180;28;20016;-70
2023/09/30 08:30:38;;;;;;;208.90;149.07;;;35.00;99.90;;;;;;5095016;28;20115;-70
2023/09/30 08:33:05;;;;;;;169.50;115.68;;;35.00;99.90;;;;;;5094988;28;20016;-70
2023/09/30 08:35:37;;;;;;;182.65;119.72;;;35.00;99.90;;;;;;5092794;28;20549;-70
2023/09/30 08:38:04;;;;;;;166.35;114.97;;;34.90;99.90;;;;;;5082801;28;20025;-71
2023/09/30 08:40:31;;;;;;;181.52;126.05;;;34.90;99.90;;;;;;5074726;28;20447;-71
2023/09/30 08:42:58;;;;;;;172.00;118.90;;;34.90;99.90;;;;;;5074585;28;20029;-71
2023/09/30 08:45:27;;;;;;;189.52;124.75;;;34.90;99.90;;;;;;5074513;28;20035;-70
2023/09/30 08:47:55;;;;;;;184.70;123.88;;;34.90;99.90;;;;;;5074755;28;20021;-71
2023/09/30 08:50:22;;;;;;;179.48;118.72;;;34.80;99.90;;;;;;5074478;28;20055;-71
2023/09/30 08:52:50;;;;;;;176.38;123.40;;;34.80;99.90;;;;;;5083960;28;20028;-68
2023/09/30 08:55:16;;;;;;;176.38;118.35;;;34.80;99.90;;;;;;5083234;28;20029;-70
2023/09/30 08:57:43;;;;;;;178.10;115.13;;;34.80;99.90;;;;;;5095019;28;20553;-72
2023/09/30 09:00:12;;;;;;;174.23;114.50;;;34.80;99.90;;;;;;5084280;28;20016;-69
2023/09/30 09:02:40;;;;;;;206.20;121.18;;;34.80;99.90;;;;;;5083724;28;20023;-70
2023/09/30 09:05:07;;;;;;;186.35;119.93;;;34.70;99.80;;;;;;5093815;28;20032;-70
2023/09/30 09:07:35;;;;;;;185.02;123.00;;;34.70;99.90;;;;;;5093884;28;20032;-70
2023/09/30 09:10:07;;;;;;;187.85;124.65;;;34.60;99.90;;;;;;5094373;28;20016;-70
2023/09/30 09:12:36;;;;;;;186.18;122.55;;;34.60;99.90;;;;;;5094453;28;20522;-71
2023/09/30 09:15:06;;;;;;;190.80;126.43;;;34.70;99.90;;;;;;5094285;28;20050;-71
2023/09/30 09:17:44;;;;;;;197.15;129.30;;;34.70;99.90;;;;;;5094628;28;20443;-70
2023/09/30 09:20:20;;;;;;;201.18;136.27;;;34.60;99.90;;;;;;5093961;28;20035;-70
2023/09/30 09:22:53;;;;;;;245.80;160.02;;;34.60;99.90;;;;;;5096387;28;20077;-70
2023/09/30 09:25:22;;;;;;;245.10;154.73;;;34.50;99.90;;;;;;5073786;28;20028;-70
2023/09/30 09:27:51;;;;;;;263.35;167.35;;;34.40;99.90;;;;;;5074717;28;20042;-71
2023/09/30 09:30:26;;;;;;;259.67;166.27;;;34.40;99.90;;;;;;5114341;28;20062;-70
2023/09/30 09:33:00;;;;;;;272.58;173.43;;;34.40;99.90;;;;;;5114096;28;20140;-69
2023/09/30 09:35:30;;;;;;;268.77;182.38;;;34.40;99.90;;;;;;5114243;28;20027;-71
2023/09/30 09:38:07;;;;;;;226.20;153.98;;;34.30;99.90;;;;;;5079757;28;20391;-70
2023/09/30 09:40:35;;;;;;;212.45;142.50;;;34.30;99.90;;;;;;5073504;28;20391;-70
2023/09/30 09:43:04;;;;;;;217.85;146.10;;;34.30;99.90;;;;;;5073494;28;20024;-70
2023/09/30 09:45:34;;;;;;;226.93;149.48;;;34.30;99.90;;;;;;5073344;28;20119;-69
2023/09/30 09:48:01;;;;;;;214.63;140.63;;;34.30;99.90;;;;;;5073498;28;20024;-69
2023/09/30 09:50:28;;;;;;;221.50;140.05;;;34.20;99.90;;;;;;5073365;28;20483;-70
2023/09/30 09:52:58;;;;;;;216.23;139.45;;;34.20;99.90;;;;;;5073480;28;20025;-69
2023/09/30 09:55:25;;;;;;;217.15;141.68;;;34.20;99.90;;;;;;5073417;28;20028;-69
2023/09/30 09:57:52;;;;;;;228.75;148.38;;;34.20;99.90;;;;;;5073579;28;20492;-70
2023/09/30 10:00:23;;;;;;;238.85;151.02;;;34.20;99.90;;;;;;5073080;28;20056;-71
2023/09/30 10:02:51;;;;;;;263.45;170.48;;;34.10;99.90;;;;;;5073212;28;20105;-70
2023/09/30 10:05:19;;;;;;;229.07;141.45;;;34.00;99.90;;;;;;5072688;28;20052;-70
2023/09/30 10:07:57;;;;;;;213.90;132.45;;;33.80;99.90;;;;;;5073190;28;20028;-68
2023/09/30 10:10:25;;;;;;;217.82;138.00;;;33.70;99.90;;;;;;5073327;28;20100;-69
2023/09/30 10:12:51;;;;;;;217.98;127.85;;;33.60;99.90;;;;;;5072975;28;20484;-72
2023/09/30 10:15:26;;;;;;;185.57;118.60;;;33.60;99.90;;;;;;5073454;28;20025;-70
2023/09/30 10:18:04;;;;;;;210.55;132.52;;;33.50;99.90;;;;;;5073115;28;20087;-69
2023/09/30 10:20:32;;;;;;;188.38;118.05;;;33.40;99.90;;;;;;5073049;28;20086;-70
2023/09/30 10:23:21;;;;;;;189.70;115.88;;;33.40;99.90;;;;;;5073002;28;20043;-70
2023/09/30 10:25:51;;;;;;;202.05;118.07;;;33.40;99.90;;;;;;5086718;28;20021;-66
2023/09/30 10:28:40;;;;;;;164.63;107.95;;;33.30;99.90;;;;;;5085758;28;20050;-67
2023/09/30 10:31:12;;;;;;;169.98;109.90;;;33.40;99.90;;;;;;5087292;28;20020;-65
2023/09/30 10:34:00;;;;;;;173.30;109.28;;;33.40;99.90;;;;;;5083710;28;20082;-65
2023/09/30 10:36:28;;;;;;;149.68;96.15;;;33.40;99.90;;;;;;5083927;28;20020;-66
2023/09/30 10:38:55;;;;;;;148.85;90.60;;;33.40;99.90;;;;;;5082344;28;20033;-65
2023/09/30 10:41:45;;;;;;;141.65;86.68;;;33.30;99.90;;;;;;5085013;28;20036;-63
2023/09/30 10:44:31;;;;;;;115.22;73.18;;;33.30;99.90;;;;;;5080345;28;20043;-66
2023/09/30 10:47:00;;;;;;;105.18;63.20;;;33.30;99.90;;;;;;5083513;28;20115;-67
2023/09/30 10:49:27;;;;;;;110.88;73.63;;;33.20;99.90;;;;;;5082807;28;20024;-69
2023/09/30 10:51:56;;;;;;;78.97;45.92;;;33.10;99.90;;;;;;5079879;28;20435;-65
2023/09/30 10:54:24;;;;;;;66.95;37.25;;;33.10;99.90;;;;;;5079301;28;20020;-67
2023/09/30 10:56:50;;;;;;;60.33;36.63;;;33.10;99.90;;;;;;5085408;28;20038;-66
2023/09/30 10:59:20;;;;;;;70.22;37.70;;;33.10;99.90;;;;;;5084846;28;20112;-64
2023/09/30 11:01:46;;;;;;;54.03;31.25;;;33.10;99.90;;;;;;5083559;28;20047;-66
2023/09/30 11:04:13;;;;;;;53.55;28.65;;;33.10;99.90;;;;;;5084534;28;20032;-66
2023/09/30 11:06:43;;;;;;;47.85;27.85;;;32.90;99.90;;;;;;5081570;28;20017;-66
2023/09/30 11:09:12;;;;;;;46.65;26.85;;;32.90;99.90;;;;;;5085158;28;20036;-66
2023/09/30 11:11:43;;;;;;;50.58;28.55;;;32.80;99.90;;;;;;5087270;28;20514;-65
2023/09/30 11:14:20;;;;;;;50.35;26.45;;;32.80;99.90;;;;;;5085376;28;20024;-65
2023/09/30 11:16:48;;;;;;;56.20;25.33;;;32.80;99.90;;;;;;5085208;28;20483;-68
2023/09/30 11:19:15;;;;;;;46.83;24.92;;;32.70;99.90;;;;;;5086274;28;20459;-65
2023/09/30 11:21:43;;;;;;;48.55;25.90;;;32.70;99.90;;;;;;5085691;28;20024;-66
2023/09/30 11:24:11;;;;;;;70.57;42.13;;;32.70;99.90;;;;;;5087804;28;20115;-66
2023/09/30 11:26:41;;;;;;;78.68;53.42;;;32.60;99.90;;;;;;5085065;28;20441;-65
2023/09/30 11:29:12;;;;;;;62.88;40.72;;;32.60;99.90;;;;;;5087696;28;20027;-67
2023/09/30 11:31:42;;;;;;;77.47;46.95;;;32.60;99.90;;;;;;5085980;28;20012;-65
2023/09/30 11:34:09;;;;;;;58.95;37.97;;;32.60;99.90;;;;;;5085192;28;20383;-65
2023/09/30 11:36:43;;;;;;;69.60;38.75;;;32.50;99.90;;;;;;5086421;28;20047;-66
2023/09/30 11:39:21;;;;;;;48.20;26.50;;;32.50;99.90;;;;;;5084518;28;20474;-66
2023/09/30 11:41:47;;;;;;;37.95;23.75;;;32.40;99.90;;;;;;5085194;28;20066;-65
2023/09/30 11:44:16;;;;;;;31.98;18.48;;;32.30;99.90;;;;;;5084174;28;20013;-67
2023/09/30 11:46:59;;;;;;;35.33;18.85;;;32.20;99.90;;;;;;5085019;28;20032;-65
2023/09/30 11:49:27;;;;;;;39.92;19.83;;;32.20;99.90;;;;;;5085685;28;20027;-69
2023/09/30 11:51:54;;;;;;;31.55;17.08;;;32.10;99.90;;;;;;5085256;28;20085;-68
2023/09/30 11:54:22;;;;;;;36.53;18.52;;;32.00;99.90;;;;;;5084207;28;20016;-68
2023/09/30 11:56:50;;;;;;;37.17;19.23;;;32.00;99.90;;;;;;5084194;28;20020;-66
2023/09/30 11:59:19;;;;;;;37.15;19.50;;;32.00;99.90;;;;;;5084854;28;20024;-68
2023/09/30 12:01:48;;;;;;;32.50;19.13;;;32.00;99.90;;;;;;5087449;28;20501;-65
2023/09/30 12:04:19;;;;;;;35.28;18.50;;;31.90;99.90;;;;;;5088116;28;20028;-67
2023/09/30 12:06:48;;;;;;;34.55;19.92;;;31.90;99.90;;;;;;5090272;28;20035;-70
2023/09/30 12:09:21;;;;;;;34.90;19.35;;;31.80;99.90;;;;;;5079950;28;20060;-68
2023/09/30 12:11:49;;;;;;;36.35;21.45;;;31.80;99.90;;;;;;5079461;28;20035;-66
2023/09/30 12:14:16;;;;;;;38.20;20.52;;;31.70;99.90;;;;;;5079297;28;20027;-66
2023/09/30 12:16:47;;;;;;;35.85;19.10;;;31.70;99.90;;;;;;5069856;28;20557;-67
2023/09/30 12:19:15;;;;;;;38.45;20.67;;;31.80;99.90;;;;;;5090020;28;20032;-67